Time;durP1;ratioP1;P1;durP2;ratioP2;P2;SDS_P1;SDS_P2;PMS_P1;PMS_P2;Temp;Humidity;BMP_temperature;BMP_pressure;BME280_temperature;BME280_humidity;BME280_pressure;Samples;Min_cycle;Max_cycle;Signal;HPM_P1;HPM_P2
2021/12/04 00:04:52;;;;;;;0.30;0.30;;;;;;;2.25;90.96;98072.38;2300417;69;20296;-79
2021/12/04 00:08:13;;;;;;;0.30;0.30;;;;;;;2.20;91.00;98063.81;2293964;69;20305;-79
2021/12/04 00:11:16;;;;;;;1.21;0.57;;;;;;;2.18;90.96;98047.59;2297270;69;20385;-78
2021/12/04 00:14:19;;;;;;;0.50;0.38;;;;;;;2.15;90.92;98034.75;2295873;69;20410;-78
2021/12/04 00:17:22;;;;;;;0.39;0.30;;;;;;;2.15;91.21;98021.06;2302155;66;21740;-77
2021/12/04 00:20:27;;;;;;;0.51;0.35;;;;;;;2.10;91.16;98021.91;2300859;69;21108;-78
2021/12/04 00:26:52;;;;;;;0.94;0.29;;;;;;;2.02;91.44;97997.13;2294063;69;21096;-76
2021/12/04 00:30:27;;;;;;;1.01;0.40;;;;;;;2.01;91.78;97993.72;2295734;69;20283;-76
2021/12/04 00:33:32;;;;;;;0.24;0.24;;;;;;;2.01;91.94;97982.63;2296821;69;20335;-77
2021/12/04 00:49:05;;;;;;;0.84;0.40;;;;;;;2.08;92.48;97967.28;2309110;69;20787;-77
2021/12/04 00:50:07;;;;;;;0.68;0.44;;;;;;;2.11;92.54;97962.19;2307488;69;20302;-77
2021/12/04 00:53:09;;;;;;;0.46;0.40;;;;;;;2.10;92.85;97949.38;2305503;69;21079;-76
2021/12/04 00:56:12;;;;;;;0.30;0.30;;;;;;;2.13;93.03;97946.81;2307013;69;20349;-76
2021/12/04 00:59:16;;;;;;;0.45;0.40;;;;;;;2.17;93.06;97933.22;2306534;69;20311;-77
2021/12/04 01:02:20;;;;;;;0.98;0.40;;;;;;;2.21;92.94;97927.25;2305871;66;24106;-76
2021/12/04 01:05:23;;;;;;;0.30;0.30;;;;;;;2.24;92.94;97911.06;2307811;69;20328;-77
2021/12/04 01:08:25;;;;;;;0.60;0.39;;;;;;;2.27;93.01;97914.47;2306979;69;20306;-77
2021/12/04 01:11:29;;;;;;;1.85;0.40;;;;;;;2.31;93.00;97907.66;2307416;69;20741;-76
2021/12/04 01:14:32;;;;;;;0.32;0.26;;;;;;;2.34;92.99;97900.00;2308042;69;20712;-77
2021/12/04 01:17:35;;;;;;;1.29;0.31;;;;;;;2.34;93.03;97898.31;2306120;66;21170;-77
2021/12/04 01:20:39;;;;;;;0.47;0.34;;;;;;;2.33;93.21;97901.69;2307421;69;20306;-77
2021/12/04 01:23:41;;;;;;;0.76;0.30;;;;;;;2.37;93.35;97897.47;2308896;69;20845;-78
2021/12/04 01:26:45;;;;;;;0.44;0.30;;;;;;;2.38;93.33;97896.59;2308399;69;20310;-77
2021/12/04 01:29:48;;;;;;;0.40;0.40;;;;;;;2.40;93.67;97884.66;2309236;69;20344;-77
2021/12/04 01:32:50;;;;;;;0.30;0.30;;;;;;;2.42;93.74;97883.81;2305656;66;23659;-77
2021/12/04 01:35:53;;;;;;;0.30;0.30;;;;;;;2.46;93.75;97878.69;2308676;69;20396;-77
2021/12/04 01:38:56;;;;;;;0.41;0.40;;;;;;;2.49;93.69;97868.44;2305870;69;20425;-76
2021/12/04 01:41:59;;;;;;;0.55;0.43;;;;;;;2.50;93.61;97862.47;2308701;69;20321;-77
2021/12/04 01:45:04;;;;;;;0.41;0.30;;;;;;;2.52;93.71;97858.22;2306234;69;20781;-77
2021/12/04 01:48:07;;;;;;;0.40;0.30;;;;;;;2.55;93.71;97848.00;2307069;66;23289;-77
2021/12/04 01:51:10;;;;;;;0.47;0.40;;;;;;;2.55;93.69;97846.28;2307569;69;20298;-77
2021/12/04 01:54:12;;;;;;;0.31;0.30;;;;;;;2.54;93.94;97839.44;2306550;69;20302;-77
2021/12/04 01:57:16;;;;;;;0.30;0.30;;;;;;;2.57;94.09;97841.16;2308240;69;21070;-77
2021/12/04 02:00:19;;;;;;;0.30;0.30;;;;;;;2.59;94.05;97836.88;2305132;66;21954;-75
2021/12/04 02:03:22;;;;;;;0.30;0.30;;;;;;;2.61;94.03;97840.31;2306403;69;20318;-75
2021/12/04 02:06:25;;;;;;;0.68;0.30;;;;;;;2.62;94.13;97839.44;2306912;69;20310;-75
2021/12/04 02:09:27;;;;;;;0.49;0.30;;;;;;;2.65;94.12;97836.88;2306636;69;20870;-76
2021/12/04 02:12:30;;;;;;;0.75;0.30;;;;;;;2.65;94.11;97830.06;2307644;69;20346;-76
2021/12/04 02:15:33;;;;;;;0.31;0.31;;;;;;;2.67;94.08;97824.94;2290535;69;20339;-77
2021/12/04 02:18:36;;;;;;;0.30;0.30;;;;;;;2.66;94.18;97829.19;2306762;66;22016;-77
2021/12/04 02:21:39;;;;;;;0.63;0.30;;;;;;;2.68;94.12;97818.94;2307886;69;20356;-76
2021/12/04 02:24:42;;;;;;;0.30;0.30;;;;;;;2.67;94.32;97807.84;2306933;69;20319;-76
2021/12/04 02:27:45;;;;;;;0.30;0.30;;;;;;;2.71;94.36;97808.75;2303685;69;20360;-76
2021/12/04 02:30:48;;;;;;;0.30;0.30;;;;;;;2.71;94.46;97801.06;2305363;66;22263;-76
2021/12/04 02:33:52;;;;;;;0.38;0.38;;;;;;;2.75;94.41;97800.19;2307899;69;20367;-77
2021/12/04 02:36:56;;;;;;;0.30;0.30;;;;;;;2.79;94.27;97795.91;2308721;69;20282;-77
2021/12/04 02:39:59;;;;;;;0.40;0.40;;;;;;;2.82;94.20;97790.78;2307937;69;20291;-77
2021/12/04 02:43:03;;;;;;;0.80;0.54;;;;;;;2.82;94.14;97783.94;2308168;69;20290;-77
2021/12/04 02:46:06;;;;;;;0.64;0.50;;;;;;;2.82;94.15;97778.81;2306098;66;22702;-77
2021/12/04 02:49:10;;;;;;;0.90;0.47;;;;;;;2.84;94.04;97769.44;2302701;69;20307;-76
2021/12/04 02:52:13;;;;;;;4.01;0.50;;;;;;;2.85;94.00;97766.00;2307662;69;20290;-77
2021/12/04 02:55:17;;;;;;;0.55;0.55;;;;;;;2.88;93.98;97768.59;2308488;69;20364;-77
2021/12/04 02:58:20;;;;;;;0.52;0.52;;;;;;;2.89;94.03;97759.19;2307605;69;20334;-77
2021/12/04 03:01:24;;;;;;;0.49;0.40;;;;;;;2.90;94.12;97756.63;2305984;67;22068;-76
2021/12/04 03:04:28;;;;;;;0.39;0.39;;;;;;;2.90;94.05;97751.50;2308262;69;20307;-76
2021/12/04 03:07:31;;;;;;;0.40;0.40;;;;;;;2.92;93.99;97736.13;2308974;69;20307;-76
2021/12/04 03:10:33;;;;;;;0.41;0.40;;;;;;;2.93;94.05;97735.25;2309166;69;20298;-76
2021/12/04 03:13:36;;;;;;;0.60;0.40;;;;;;;2.94;94.01;97730.13;2310598;69;20312;-77
2021/12/04 03:16:41;;;;;;;0.40;0.40;;;;;;;2.95;93.98;97716.44;2306993;67;20856;-77
2021/12/04 03:19:43;;;;;;;0.40;0.40;;;;;;;2.97;93.95;97714.75;2311864;69;20306;-76
2021/12/04 03:22:48;;;;;;;0.40;0.40;;;;;;;2.98;93.96;97707.91;2302509;69;20666;-76
2021/12/04 03:25:53;;;;;;;0.45;0.43;;;;;;;2.98;94.08;97701.06;2307445;69;20314;-76
2021/12/04 03:28:57;;;;;;;0.63;0.60;;;;;;;2.99;94.16;97696.78;2308010;69;20278;-77
2021/12/04 03:40:02;;;;;;;0.60;0.54;;;;;;;3.01;94.25;97689.94;2308549;69;20317;-76
2021/12/04 03:42:06;;;;;;;0.50;0.50;;;;;;;2.99;94.38;97677.13;2312048;69;20339;-76
2021/12/04 03:45:10;;;;;;;0.43;0.43;;;;;;;3.01;94.51;97667.72;2306924;69;20310;-76
2021/12/04 03:48:29;;;;;;;0.44;0.44;;;;;;;3.02;94.51;97666.88;2309014;67;21924;-76
2021/12/04 03:51:31;;;;;;;1.09;0.70;;;;;;;3.05;94.53;97663.44;2306194;69;20899;-76
2021/12/04 03:54:37;;;;;;;0.50;0.50;;;;;;;3.07;94.60;97659.19;2303633;69;20209;-75
2021/12/04 03:57:45;;;;;;;0.60;0.60;;;;;;;3.06;94.62;97649.78;2307629;69;20402;-76
2021/12/04 04:00:48;;;;;;;0.40;0.40;;;;;;;3.07;94.65;97651.50;2306322;66;20318;-76
2021/12/04 04:03:51;;;;;;;0.50;0.50;;;;;;;3.09;94.77;97651.50;2307294;69;20930;-77
2021/12/04 04:06:54;;;;;;;0.50;0.50;;;;;;;3.10;94.82;97637.81;2308540;69;20309;-77
2021/12/04 04:09:56;;;;;;;1.35;0.60;;;;;;;3.11;94.88;97635.25;2307733;69;20357;-76
2021/12/04 04:12:59;;;;;;;1.06;0.57;;;;;;;3.12;94.96;97629.25;2306641;69;20302;-77
2021/12/04 04:16:02;;;;;;;0.80;0.80;;;;;;;3.15;95.02;97630.94;2305730;66;21244;-77
2021/12/04 04:19:05;;;;;;;0.91;0.91;;;;;;;3.17;95.01;97629.22;2307266;69;20751;-77
2021/12/04 04:22:08;;;;;;;0.93;0.91;;;;;;;3.18;95.06;97633.50;2308272;69;20270;-77
2021/12/04 04:25:13;;;;;;;1.13;0.81;;;;;;;3.19;95.07;97622.38;2308268;69;20763;-77
2021/12/04 04:28:15;;;;;;;1.45;0.47;;;;;;;3.22;95.12;97627.50;2306340;69;20327;-77
2021/12/04 04:31:18;;;;;;;0.50;0.50;;;;;;;3.21;95.14;97618.94;2304638;67;20972;-76
2021/12/04 04:34:29;;;;;;;0.56;0.56;;;;;;;3.23;95.16;97611.25;2306850;69;20286;-77
2021/12/04 04:37:42;;;;;;;0.95;0.81;;;;;;;3.24;95.34;97600.16;2306914;69;20325;-76
2021/12/04 05:00:50;;;;;;;1.24;0.70;;;;;;;3.34;95.45;97582.13;2305711;67;22472;-78
2021/12/04 05:13:47;;;;;;;0.68;0.68;;;;;;;3.35;95.95;97570.16;2307522;69;20294;-77
2021/12/04 05:16:53;;;;;;;0.60;0.60;;;;;;;3.37;95.98;97563.31;2306251;66;25290;-77
2021/12/04 05:19:55;;;;;;;1.01;0.76;;;;;;;3.39;96.04;97553.88;2308942;69;20295;-77
2021/12/04 05:23:00;;;;;;;0.60;0.60;;;;;;;3.40;96.00;97545.31;2309043;69;20855;-77
2021/12/04 05:26:04;;;;;;;0.70;0.70;;;;;;;3.43;96.06;97552.19;2307729;69;20864;-77
2021/12/04 05:29:07;;;;;;;0.70;0.69;;;;;;;3.42;96.00;97538.50;2308218;69;20301;-77
2021/12/04 05:32:10;;;;;;;0.98;0.80;;;;;;;3.40;96.11;97536.78;2306622;67;24453;-77
2021/12/04 05:35:13;;;;;;;0.71;0.70;;;;;;;3.42;96.28;97533.38;2313383;69;20298;-77
2021/12/04 05:38:17;;;;;;;1.10;0.80;;;;;;;3.42;96.31;97529.94;2309222;69;20499;-76
2021/12/04 05:41:21;;;;;;;0.82;0.82;;;;;;;3.43;96.45;97529.94;2308175;69;21332;-78
2021/12/04 05:44:33;;;;;;;0.95;0.79;;;;;;;3.45;96.52;97528.22;2308064;69;20306;-77
2021/12/04 05:48:32;;;;;;;1.00;0.90;;;;;;;3.45;96.48;97519.66;2304622;69;20312;-77
2021/12/04 05:52:33;;;;;;;;;;;;;;;;;;;;;
2021/12/04 07:11:36;;;;;;;0.70;0.70;;;;;;;4.22;98.34;97490.78;2299607;69;21089;-76
2021/12/04 07:14:43;;;;;;;1.51;0.66;;;;;;;4.25;98.40;97484.75;2279495;69;20870;-76
2021/12/04 07:18:06;;;;;;;0.90;0.73;;;;;;;4.29;98.40;97483.84;2291719;69;20948;-76
2021/12/04 07:21:10;;;;;;;0.91;0.86;;;;;;;4.29;98.19;97485.56;2297677;69;20774;-77
2021/12/04 07:24:15;;;;;;;1.54;0.70;;;;;;;4.31;98.31;97481.25;2302100;69;20329;-77
2021/12/04 07:27:20;;;;;;;0.85;0.85;;;;;;;4.32;98.47;97477.84;2298655;69;20295;-77
2021/12/04 07:30:37;;;;;;;0.88;0.84;;;;;;;4.36;98.66;97476.94;2288892;67;132337;-78
2021/12/04 08:07:15;;;;;;;0.64;0.64;;;;;;;4.80;99.37;97469.56;2300283;69;20309;-78
2021/12/04 08:10:26;;;;;;;2.47;0.57;;;;;;;4.88;99.67;97466.06;2297534;69;20865;-79
2021/12/04 08:13:45;;;;;;;2.44;1.94;;;;;;;4.96;99.94;97466.81;2292804;69;20306;-77
2021/12/04 08:16:47;;;;;;;1.21;0.74;;;;;;;5.05;100.00;97464.97;2304292;69;20286;-76
2021/12/04 08:19:50;;;;;;;0.71;0.71;;;;;;;5.13;100.00;97468.28;2304935;69;20308;-76
2021/12/04 08:22:54;;;;;;;0.76;0.59;;;;;;;5.20;100.00;97460.47;2305871;69;20380;-77
2021/12/04 08:25:57;;;;;;;1.49;0.63;;;;;;;5.26;100.00;97465.53;2301709;69;20452;-77
2021/12/04 08:29:02;;;;;;;1.25;0.56;;;;;;;5.28;99.99;97458.66;2306589;69;20306;-77
2021/12/04 08:32:08;;;;;;;0.60;0.50;;;;;;;5.34;99.88;97461.13;2307459;69;20329;-80
2021/12/04 08:35:23;;;;;;;0.70;0.70;;;;;;;5.37;99.69;97454.19;2298163;69;20371;-80
2021/12/04 08:39:06;;;;;;;0.65;0.55;;;;;;;5.41;99.68;97450.72;2304885;69;20312;-79
2021/12/04 08:42:47;;;;;;;0.51;0.51;;;;;;;5.46;99.70;97453.22;2309299;69;20393;-79
2021/12/04 08:46:01;;;;;;;0.66;0.60;;;;;;;5.53;99.85;97452.25;2304144;69;20340;-80
2021/12/04 08:49:09;;;;;;;0.74;0.60;;;;;;;5.62;100.00;97438.38;2300153;69;20294;-80
2021/12/04 08:52:18;;;;;;;0.65;0.50;;;;;;;5.70;100.00;97439.09;2308054;69;20286;-80
2021/12/04 08:55:25;;;;;;;0.71;0.70;;;;;;;5.75;100.00;97439.91;2306323;69;20347;-78
2021/12/04 08:58:39;;;;;;;1.52;1.42;;;;;;;5.79;99.98;97436.38;2297206;69;20204;-78
2021/12/04 09:01:48;;;;;;;0.50;0.50;;;;;;;5.84;99.96;97434.56;2292133;69;184313;-77
2021/12/04 09:04:54;;;;;;;0.86;0.50;;;;;;;5.89;99.87;97437.06;2302962;69;20299;-77
2021/12/04 09:08:02;;;;;;;0.51;0.40;;;;;;;5.95;99.93;97440.44;2297800;69;20410;-77
2021/12/04 09:11:12;;;;;;;0.50;0.50;;;;;;;6.01;99.99;97436.88;2297999;69;20149;-76
2021/12/04 09:14:18;;;;;;;1.92;0.50;;;;;;;6.05;99.96;97434.22;2296062;69;20288;-77
2021/12/04 09:17:25;;;;;;;0.40;0.40;;;;;;;6.11;99.99;97435.00;2285564;67;79726;-76
2021/12/04 09:20:30;;;;;;;0.40;0.40;;;;;;;6.17;99.99;97427.16;2292927;69;20274;-77
2021/12/04 10:35:28;;;;;;;0.86;0.81;;;;;;;7.38;100.00;97359.22;2296277;69;20307;-76
2021/12/04 10:38:38;;;;;;;0.60;0.60;;;;;;;7.43;100.00;97351.34;2295509;69;22046;-75
2021/12/04 10:41:44;;;;;;;0.94;0.51;;;;;;;7.48;100.00;97346.91;2294128;69;20288;-76
2021/12/04 11:44:43;;;;;;;0.54;0.43;;;;;;;8.22;99.77;97229.47;2303155;69;20695;-79
2021/12/04 11:47:52;;;;;;;6.82;0.60;;;;;;;8.17;99.51;97227.88;2305859;69;20279;-78
2021/12/04 11:50:55;;;;;;;1.30;0.79;;;;;;;8.14;99.75;97220.22;2296438;69;20310;-76
2021/12/04 11:53:58;;;;;;;0.30;0.20;;;;;;;8.11;99.78;97209.97;2302385;69;20165;-77
2021/12/04 11:57:08;;;;;;;0.30;0.30;;;;;;;8.12;99.91;97211.66;2303139;69;20347;-78
2021/12/04 12:00:28;;;;;;;0.55;0.30;;;;;;;8.12;99.84;97205.66;2299115;69;20338;-79
2021/12/04 12:03:36;;;;;;;0.21;0.21;;;;;;;8.09;99.60;97211.75;2299059;69;20488;-78
2021/12/04 12:06:42;;;;;;;0.39;0.30;;;;;;;8.06;99.78;97191.16;2290995;69;20767;-77
2021/12/04 12:10:01;;;;;;;0.65;0.39;;;;;;;8.06;99.93;97206.66;2293638;69;20308;-78
2021/12/04 12:13:06;;;;;;;0.40;0.35;;;;;;;8.06;99.99;97213.56;2303944;69;20316;-78
2021/12/04 12:16:33;;;;;;;0.46;0.40;;;;;;;8.04;100.00;97215.34;2293123;67;33170;-79
2021/12/04 12:19:47;;;;;;;3.21;0.50;;;;;;;8.01;100.00;97218.03;2304406;69;21129;-78
2021/12/04 12:22:57;;;;;;;0.25;0.25;;;;;;;7.99;100.00;97207.75;2302720;69;20334;-78
2021/12/04 12:26:17;;;;;;;0.26;0.26;;;;;;;7.99;100.00;97199.16;2302631;69;20298;-78
2021/12/04 12:33:55;;;;;;;;;;;;;;;8.02;100.00;97248.16;2296350;69;21002;-78
2021/12/04 12:36:58;;;;;;;0.60;0.30;;;;;;;8.03;100.00;97249.84;2291228;69;20737;-78
2021/12/04 12:40:08;;;;;;;0.79;0.31;;;;;;;8.03;100.00;97237.75;2303528;69;20374;-78
2021/12/04 12:43:17;;;;;;;0.36;0.36;;;;;;;8.03;100.00;97221.41;2302511;69;20914;-78
2021/12/04 12:46:31;;;;;;;0.76;0.46;;;;;;;8.04;100.00;97225.69;2300350;66;24101;-78
2021/12/04 12:49:38;;;;;;;0.49;0.49;;;;;;;8.04;100.00;97223.94;2292941;69;20194;-78
2021/12/04 12:52:46;;;;;;;0.57;0.50;;;;;;;8.08;100.00;97209.22;2302608;69;21175;-78
2021/12/04 12:55:50;;;;;;;0.40;0.40;;;;;;;8.10;100.00;97194.53;2289463;69;20758;-78
2021/12/04 12:58:58;;;;;;;1.67;0.43;;;;;;;8.15;100.00;97192.63;2303585;69;20302;-78
2021/12/04 13:12:16;;;;;;;1.34;0.43;;;;;;;8.18;100.00;97229.56;2300304;69;20395;-75
2021/12/04 13:15:32;;;;;;;0.40;0.40;;;;;;;8.20;100.00;97195.91;2299858;69;20386;-74
2021/12/04 13:18:45;;;;;;;2.15;0.30;;;;;;;8.25;100.00;97200.94;2303446;69;20393;-76
2021/12/04 13:21:55;;;;;;;0.32;0.32;;;;;;;8.26;100.00;97212.97;2292459;69;20326;-78
2021/12/04 13:25:07;;;;;;;0.30;0.30;;;;;;;8.28;100.00;97225.00;2300301;69;20310;-76
2021/12/04 13:28:21;;;;;;;0.56;0.44;;;;;;;8.28;100.00;97218.97;2295702;69;20314;-77
2021/12/04 13:31:25;;;;;;;1.34;0.40;;;;;;;8.32;100.00;97223.16;2285298;69;20339;-76
2021/12/04 13:34:30;;;;;;;0.40;0.40;;;;;;;8.32;100.00;97225.72;2301956;69;20340;-76
2021/12/04 13:38:26;;;;;;;0.30;0.30;;;;;;;8.36;100.00;97228.19;2302332;69;20340;-76
2021/12/04 14:06:33;;;;;;;0.38;0.34;;;;;;;9.11;98.82;97199.91;2288902;69;20318;-77
2021/12/04 14:10:18;;;;;;;0.21;0.21;;;;;;;9.09;98.42;97212.06;2287569;69;20150;-77
2021/12/04 14:13:37;;;;;;;0.74;0.40;;;;;;;9.06;98.30;97207.84;2277464;70;20441;-77
2021/12/04 14:16:43;;;;;;;0.30;0.30;;;;;;;9.02;97.98;97210.59;2270002;70;20364;-77
2021/12/04 14:19:47;;;;;;;0.20;0.20;;;;;;;8.98;98.08;97204.69;2280077;70;20294;-76
2021/12/04 14:22:53;;;;;;;0.29;0.20;;;;;;;9.02;98.27;97198.50;2285121;70;20382;-77
2021/12/04 14:25:55;;;;;;;0.90;0.30;;;;;;;9.00;98.28;97202.03;2279697;70;20310;-76
2021/12/04 14:28:59;;;;;;;0.52;0.30;;;;;;;9.01;98.38;97206.31;2281161;70;20356;-76
2021/12/04 14:32:04;;;;;;;0.64;0.30;;;;;;;8.99;98.36;97206.38;2277921;70;20397;-77
2021/12/04 14:35:16;;;;;;;0.34;0.20;;;;;;;8.96;98.36;97209.03;2282223;69;20391;-77
2021/12/04 14:38:22;;;;;;;0.30;0.30;;;;;;;8.96;98.34;97219.38;2281131;70;20342;-75
2021/12/04 14:41:29;;;;;;;0.20;0.20;;;;;;;8.96;98.45;97218.53;2279756;70;21547;-75
2021/12/04 14:44:32;;;;;;;0.30;0.30;;;;;;;8.96;98.61;97227.16;2284959;69;20493;-76
2021/12/04 14:47:43;;;;;;;0.10;0.10;;;;;;;8.99;98.76;97228.81;2285373;67;22143;-76
2021/12/04 14:50:50;;;;;;;0.20;0.19;;;;;;;8.99;98.74;97249.53;2288064;69;20451;-76
2021/12/04 15:00:22;;;;;;;0.84;0.47;;;;;;;9.02;98.52;97262.38;2292562;69;20324;-77
2021/12/04 15:10:17;;;;;;;2.42;0.17;;;;;;;8.74;95.38;97298.59;2286450;69;20481;-77
2021/12/04 15:16:36;;;;;;;0.10;0.10;;;;;;;8.48;93.91;97353.72;2283329;69;978915;-76
2021/12/04 15:19:43;;;;;;;0.19;0.19;;;;;;;8.27;91.94;97360.31;2301155;69;20324;-77
2021/12/04 15:22:57;;;;;;;0.17;0.17;;;;;;;8.09;90.21;97381.50;2300541;69;21115;-77
2021/12/04 15:26:10;;;;;;;0.10;0.10;;;;;;;7.89;88.61;97380.25;2301319;69;20294;-77
2021/12/04 15:29:28;;;;;;;0.19;0.19;;;;;;;7.80;88.58;97400.34;2301178;69;20351;-77
2021/12/04 15:32:34;;;;;;;0.20;0.20;;;;;;;7.70;88.90;97417.78;2295565;69;20336;-76
2021/12/04 15:35:43;;;;;;;0.10;0.10;;;;;;;7.60;88.93;97421.50;2291638;69;20314;-77
2021/12/04 15:38:56;;;;;;;0.96;0.85;;;;;;;7.52;89.14;97432.00;2303897;69;20291;-77
2021/12/04 15:42:41;;;;;;;0.20;0.20;;;;;;;7.40;88.72;97446.94;2298175;69;20499;-78
2021/12/04 15:45:53;;;;;;;83.24;51.71;;;;;;;7.32;89.15;97461.75;2300785;66;21982;-77
2021/12/04 15:52:56;;;;;;;6.05;5.55;;;;;;;7.15;88.77;97475.03;2303301;69;21164;-78
2021/12/04 15:56:00;;;;;;;3.40;3.20;;;;;;;7.05;88.09;97489.88;2302632;69;20338;-78
2021/12/04 15:59:12;;;;;;;1.65;1.55;;;;;;;6.98;88.43;97506.34;2298920;69;20191;-78
2021/12/04 16:02:19;;;;;;;1.59;1.49;;;;;;;6.86;88.56;97516.94;2296166;67;71958;-78
2021/12/04 16:05:25;;;;;;;1.75;1.25;;;;;;;6.83;88.47;97535.06;2302667;69;21492;-77
2021/12/04 16:08:33;;;;;;;0.70;0.70;;;;;;;6.73;88.30;97538.66;2303493;69;20453;-78
2021/12/04 16:11:45;;;;;;;0.60;0.60;;;;;;;6.64;88.44;97548.28;2297561;69;20335;-77
2021/12/04 16:14:57;;;;;;;0.40;0.40;;;;;;;6.58;88.62;97566.44;2302749;69;20340;-78
2021/12/04 16:18:01;;;;;;;3.63;2.81;;;;;;;6.47;88.83;97563.22;2287939;69;20334;-78
2021/12/04 16:21:12;;;;;;;4.47;4.05;;;;;;;6.42;89.21;97567.56;2293179;69;20295;-79
2021/12/04 16:24:21;;;;;;;1.15;1.11;;;;;;;6.37;89.33;97577.13;2293137;69;20426;-78
2021/12/04 16:27:31;;;;;;;0.74;0.74;;;;;;;6.35;89.72;97572.00;2303242;69;20306;-78
2021/12/04 16:31:56;;;;;;;0.40;0.40;;;;;;;6.32;89.77;97577.22;2279708;69;963867;-77
2021/12/04 16:57:21;;;;;;;0.29;0.10;;;;;;;6.06;89.40;97639.44;2302812;69;20459;-79
2021/12/04 17:00:26;;;;;;;0.35;0.20;;;;;;;6.05;88.94;97632.59;2303899;66;46862;-79
2021/12/04 17:03:46;;;;;;;0.30;0.30;;;;;;;6.03;88.43;97636.91;2306169;69;20431;-79
2021/12/04 17:06:59;;;;;;;0.22;0.22;;;;;;;6.01;88.55;97643.81;2301330;69;21260;-80
2021/12/04 17:10:22;;;;;;;2.66;0.36;;;;;;;6.01;88.42;97633.53;2302635;69;20331;-80
2021/12/04 17:13:41;;;;;;;0.30;0.30;;;;;;;5.96;88.03;97637.91;2304009;69;20324;-79
2021/12/04 17:16:55;;;;;;;0.38;0.30;;;;;;;5.94;87.85;97638.78;2306351;66;25281;-80
2021/12/04 17:20:02;;;;;;;0.30;0.30;;;;;;;5.93;87.69;97644.81;2307584;69;20337;-78
2021/12/04 17:23:10;;;;;;;0.20;0.20;;;;;;;5.93;87.58;97655.13;2306899;69;20522;-79
2021/12/04 17:26:40;;;;;;;0.30;0.30;;;;;;;5.89;87.62;97656.84;2309073;69;20388;-79
2021/12/04 17:30:11;;;;;;;1.13;0.21;;;;;;;5.90;87.56;97671.44;2309340;69;21304;-79
2021/12/04 17:33:38;;;;;;;0.34;0.34;;;;;;;5.84;87.82;97683.53;2303018;69;20403;-79
2021/12/04 17:36:59;;;;;;;1.00;0.77;;;;;;;5.81;87.54;97707.59;2304374;69;20317;-80
2021/12/04 17:49:38;;;;;;;1.63;0.40;;;;;;;5.72;86.46;97756.63;2310661;69;20350;-79
2021/12/04 17:57:04;;;;;;;1.77;0.40;;;;;;;5.64;86.05;97761.03;2296661;69;20303;-80
2021/12/04 18:00:52;;;;;;;1.24;0.38;;;;;;;5.54;85.80;97762.84;2269053;69;2509352;-82
2021/12/04 18:04:08;;;;;;;0.86;0.57;;;;;;;5.47;86.23;97761.22;2299531;69;20703;-79
2021/12/04 18:16:07;;;;;;;1.94;0.50;;;;;;;5.37;85.57;97772.44;2265277;68;23396;-79
2021/12/04 18:19:13;;;;;;;0.76;0.44;;;;;;;5.32;84.63;97769.94;2265910;70;20342;-79
2021/12/04 18:22:16;;;;;;;1.23;0.40;;;;;;;5.32;85.52;97784.53;2268210;70;21127;-79
2021/12/04 18:25:20;;;;;;;1.04;0.50;;;;;;;5.30;85.78;97784.53;2266393;70;20317;-79
2021/12/04 18:28:24;;;;;;;0.82;0.40;;;;;;;5.30;85.59;97783.69;2266382;70;20850;-79
2021/12/04 18:31:27;;;;;;;1.34;0.45;;;;;;;5.28;86.04;97781.13;2265294;68;22285;-79
2021/12/04 18:34:32;;;;;;;2.61;0.73;;;;;;;5.26;86.17;97772.56;2265422;70;20321;-79
2021/12/04 18:37:35;;;;;;;2.15;0.65;;;;;;;5.25;85.84;97778.59;2265481;70;20293;-79
2021/12/04 18:40:40;;;;;;;2.65;0.47;;;;;;;5.26;86.15;97782.00;2268077;70;20325;-80
2021/12/04 18:43:46;;;;;;;2.21;0.43;;;;;;;5.25;86.28;97785.47;2267304;70;20321;-77
2021/12/04 18:46:49;;;;;;;2.10;0.40;;;;;;;5.25;86.33;97799.19;2292634;67;22031;-78
2021/12/04 18:49:52;;;;;;;1.08;0.71;;;;;;;5.22;86.19;97798.34;2299327;69;20295;-77
2021/12/04 18:52:55;;;;;;;2.94;0.60;;;;;;;5.19;86.50;97808.66;2299122;69;20393;-77
2021/12/04 18:55:58;;;;;;;1.73;0.51;;;;;;;5.19;86.84;97801.78;2298908;69;21398;-77
2021/12/04 18:59:03;;;;;;;1.31;0.50;;;;;;;5.21;87.05;97806.94;2298513;69;20365;-77
2021/12/04 19:02:08;;;;;;;1.50;0.50;;;;;;;5.18;87.30;97806.94;2296897;68;22034;-77
2021/12/04 19:05:14;;;;;;;0.99;0.40;;;;;;;5.13;87.65;97810.41;2296741;69;20304;-77
2021/12/04 19:08:18;;;;;;;1.15;0.50;;;;;;;5.14;88.04;97814.69;2297997;69;20347;-77
2021/12/04 19:11:24;;;;;;;3.59;0.50;;;;;;;5.15;87.95;97818.13;2297877;69;20422;-77
2021/12/04 19:14:29;;;;;;;1.00;0.52;;;;;;;5.10;88.29;97827.59;2292346;69;20574;-76
2021/12/04 19:17:34;;;;;;;4.99;1.24;;;;;;;5.08;88.98;97839.63;2295475;67;24474;-76
2021/12/04 19:20:41;;;;;;;2.04;0.65;;;;;;;5.06;88.58;97856.78;2297515;69;20369;-76
2021/12/04 19:23:49;;;;;;;4.56;0.60;;;;;;;5.06;88.51;97864.50;2297301;69;20437;-77
2021/12/04 19:26:52;;;;;;;1.38;0.58;;;;;;;5.03;88.46;97852.53;2297064;69;20304;-77
2021/12/04 19:29:56;;;;;;;1.55;0.75;;;;;;;4.98;88.49;97858.53;2297255;69;20719;-77
2021/12/04 19:53:38;;;;;;;3.08;0.88;;;;;;;4.64;87.73;97881.88;2303126;69;21114;-80
2021/12/04 19:56:51;;;;;;;2.20;1.20;;;;;;;4.62;87.82;97883.63;2307345;69;20150;-81
2021/12/04 19:59:57;;;;;;;3.42;1.10;;;;;;;4.54;87.88;97875.97;2305870;69;20214;-81
2021/12/04 20:14:47;;;;;;;2.67;0.52;;;;;;;4.42;87.40;97893.13;2311079;69;20310;-79
2021/12/04 20:18:54;;;;;;;3.56;0.60;;;;;;;4.37;87.68;97887.19;2311025;69;20679;-81
2021/12/04 20:22:06;;;;;;;8.77;1.13;;;;;;;4.36;87.89;97899.16;2298318;69;20310;-77
2021/12/04 20:25:20;;;;;;;4.55;0.70;;;;;;;4.42;87.91;97904.28;2302079;69;20309;-77
2021/12/04 20:28:44;;;;;;;5.05;0.94;;;;;;;4.41;87.76;97914.56;2301947;69;20359;-78
2021/12/04 20:32:55;;;;;;;7.68;0.84;;;;;;;4.39;87.84;97908.56;2300621;66;24809;-78
2021/12/04 21:51:33;;;;;;;8.09;1.00;;;;;;;3.96;88.06;97985.75;2307300;69;20165;-78
2021/12/04 21:55:41;;;;;;;6.56;1.13;;;;;;;3.99;88.16;97992.59;2308061;69;21045;-78
2021/12/04 22:09:27;;;;;;;7.26;1.11;;;;;;;4.21;86.69;98007.09;2303354;69;20410;-78
2021/12/04 22:24:57;;;;;;;5.07;0.82;;;;;;;4.34;85.39;98020.78;2294517;69;20337;-76
2021/12/04 23:54:32;;;;;;;2.25;0.63;;;;;;;3.80;84.77;98066.19;2303633;69;20180;-78
